createdAt,value
2017-06-20T09:00:11.434Z,982.2
2017-06-20T09:00:30.377Z,982.1
2017-06-20T09:05:17.761Z,982
2017-06-20T09:06:20.558Z,982.1
2017-06-20T09:07:33.838Z,982.1
2017-06-20T09:08:36.334Z,981.9
2017-06-20T09:09:38.898Z,982
2017-06-20T09:10:41.473Z,981.9
2017-06-20T09:11:43.994Z,981.9
2017-06-20T09:12:46.590Z,981.9
2017-06-20T09:13:49.050Z,982.1
2017-06-20T09:14:51.675Z,982.2
2017-06-20T09:15:54.168Z,982.2
2017-06-20T09:16:56.830Z,982.3
2017-06-20T09:17:59.472Z,982.2
2017-06-20T09:19:02.397Z,982.3
2017-06-20T09:20:04.978Z,982.2
2017-06-20T09:21:07.687Z,982.3
2017-06-20T09:22:10.330Z,982.3
2017-06-20T09:23:12.938Z,982.3
2017-06-20T09:24:15.487Z,982.2
2017-06-20T09:25:18.002Z,982.1
2017-06-20T09:26:20.603Z,982.2
2017-06-20T09:27:23.128Z,982.2
2017-06-20T09:28:25.652Z,982.2
2017-06-20T09:29:28.261Z,982.2
2017-06-20T09:30:32.260Z,982.3
2017-06-20T09:31:34.839Z,982.2
2017-06-20T09:32:37.420Z,982.2
2017-06-20T09:33:40.072Z,982.3
2017-06-20T09:34:42.680Z,982
2017-06-20T09:35:45.616Z,982
2017-06-20T09:36:48.108Z,982.2
2017-06-20T09:37:50.775Z,982.1
2017-06-20T09:38:54.454Z,982
2017-06-20T09:39:57.042Z,982.1
2017-06-20T09:40:59.657Z,982.1
2017-06-20T09:42:02.209Z,982
2017-06-20T09:43:04.842Z,982
2017-06-20T09:44:07.545Z,982
2017-06-20T09:45:10.175Z,982
2017-06-20T09:46:12.866Z,982
2017-06-20T09:47:15.528Z,982.1
2017-06-20T09:48:18.179Z,982.2
2017-06-20T09:49:20.843Z,982
2017-06-20T09:50:23.647Z,982.1
2017-06-20T09:51:26.308Z,982
2017-06-20T09:52:29.021Z,982
2017-06-20T09:53:32.141Z,982
2017-06-20T09:54:42.611Z,982
2017-06-20T09:55:45.297Z,982
2017-06-20T09:56:47.972Z,981.8
2017-06-20T09:57:50.578Z,981.9
2017-06-20T09:58:54.476Z,982.2
2017-06-20T09:59:57.046Z,982.1
2017-06-20T10:00:59.824Z,982.1
2017-06-20T10:02:02.533Z,982
2017-06-20T10:03:05.124Z,981.9
2017-06-20T10:04:07.963Z,981.9
2017-06-20T10:05:11.234Z,982.1
2017-06-20T10:06:13.854Z,982.1
2017-06-20T10:07:16.510Z,982
2017-06-20T10:08:20.130Z,982
2017-06-20T10:09:22.881Z,982
2017-06-20T10:10:25.573Z,982
2017-06-20T10:11:28.128Z,982.1
2017-06-20T10:12:30.821Z,982
2017-06-20T10:13:33.431Z,981.9
2017-06-20T10:14:36.174Z,981.9
2017-06-20T10:15:38.842Z,981.7
2017-06-20T10:16:42.064Z,982
2017-06-20T10:17:44.811Z,982
2017-06-20T10:18:47.601Z,982
2017-06-20T10:19:50.653Z,982.1
2017-06-20T10:20:53.329Z,982.1
2017-06-20T10:21:55.976Z,982
2017-06-20T10:23:06.340Z,982.1
2017-06-20T10:24:09.833Z,982.1
2017-06-20T10:25:12.446Z,982.1
2017-06-20T10:26:15.035Z,982.1
2017-06-20T10:27:17.801Z,982
2017-06-20T10:28:20.562Z,982.1
2017-06-20T10:29:23.181Z,982.1
2017-06-20T10:30:25.786Z,982.1
2017-06-20T10:31:28.365Z,982.1
2017-06-20T10:32:31.385Z,982.1
2017-06-20T10:33:33.993Z,982.1
2017-06-20T10:34:36.657Z,982.1
2017-06-20T10:35:39.335Z,982.1
2017-06-20T10:36:42.102Z,982.2
2017-06-20T10:37:44.762Z,982.2
2017-06-20T10:38:47.485Z,982.2
2017-06-20T10:39:50.239Z,982.2
2017-06-20T10:40:52.872Z,982.2
2017-06-20T10:41:55.532Z,982.1
2017-06-20T10:42:58.128Z,982.2
2017-06-20T10:44:00.781Z,982
2017-06-20T10:45:03.473Z,982.1
2017-06-20T10:46:06.209Z,982.1
2017-06-20T10:47:08.802Z,982.2
2017-06-20T10:48:13.508Z,981.8
2017-06-20T10:49:16.311Z,982.1
2017-06-20T10:50:19.030Z,982.2
2017-06-20T10:51:21.784Z,982.1
2017-06-20T10:52:24.428Z,982.1
2017-06-20T10:53:27.023Z,982.1
2017-06-20T10:54:29.658Z,982.1
2017-06-20T10:55:32.363Z,982.1
2017-06-20T10:56:35.044Z,982.1
2017-06-20T10:57:39.356Z,981.9
2017-06-20T10:58:42.294Z,982.1
2017-06-20T10:59:44.914Z,982.1
2017-06-20T11:00:47.649Z,982
2017-06-20T11:01:51.065Z,982.1
2017-06-20T11:02:53.718Z,982
2017-06-20T11:03:57.820Z,982.1
2017-06-20T11:05:00.781Z,982
2017-06-20T11:06:03.550Z,982
2017-06-20T11:07:06.390Z,982
2017-06-20T11:08:08.964Z,982
2017-06-20T11:09:11.938Z,982
2017-06-20T11:10:14.570Z,982
2017-06-20T11:11:17.258Z,982
2017-06-20T11:12:20.345Z,981.9
2017-06-20T11:13:23.293Z,982
2017-06-20T11:14:25.917Z,982
2017-06-20T11:15:30.309Z,982
2017-06-20T11:16:33.867Z,982
2017-06-20T11:17:39.045Z,982
2017-06-20T11:18:43.122Z,982
2017-06-20T11:19:46.301Z,982
2017-06-20T11:20:58.569Z,982.1
2017-06-20T11:22:01.315Z,982.1
2017-06-20T11:23:03.901Z,981.8
2017-06-20T11:24:06.598Z,982
2017-06-20T11:25:09.237Z,982.1
2017-06-20T11:26:12.052Z,982
2017-06-20T11:27:14.754Z,982
2017-06-20T11:28:17.512Z,982
2017-06-20T11:29:20.366Z,981.8
2017-06-20T11:30:23.155Z,982
2017-06-20T11:31:25.751Z,981.9
2017-06-20T11:32:28.362Z,981.9
2017-06-20T11:33:31.057Z,982
2017-06-20T11:34:33.720Z,981.9
2017-06-20T11:35:36.389Z,981.9
2017-06-20T11:36:38.950Z,981.9
2017-06-20T11:37:41.834Z,981.6
2017-06-20T11:38:44.554Z,981.9
2017-06-20T11:39:47.256Z,981.9
2017-06-20T11:40:49.856Z,981.9
2017-06-20T11:41:52.597Z,981.7
2017-06-20T11:42:55.240Z,982
2017-06-20T11:43:57.922Z,981.9
2017-06-20T11:45:00.704Z,981.7
2017-06-20T11:46:03.541Z,981.8
2017-06-20T11:47:06.162Z,981.9
2017-06-20T11:48:08.726Z,981.8
2017-06-20T11:49:11.452Z,981.6
2017-06-20T11:50:13.992Z,981.7
2017-06-20T11:51:16.804Z,981.9
2017-06-20T11:52:19.421Z,981.9
2017-06-20T11:53:22.160Z,981.6
2017-06-20T11:54:24.747Z,981.9
2017-06-20T11:55:28.177Z,981.9
2017-06-20T11:56:30.863Z,981.8
2017-06-20T11:57:33.784Z,981.8
2017-06-20T11:58:36.401Z,981.8
2017-06-20T11:59:39.061Z,981.5
2017-06-20T12:00:41.762Z,981.9
2017-06-20T12:01:44.376Z,981.9
2017-06-20T12:02:46.915Z,981.9
2017-06-20T12:03:49.500Z,981.9
2017-06-20T12:04:53.202Z,981.7
2017-06-20T12:05:55.832Z,982
2017-06-20T12:06:58.388Z,982
2017-06-20T12:08:01.044Z,982.1
2017-06-20T12:09:03.601Z,982
2017-06-20T12:10:06.209Z,981.9
2017-06-20T12:11:14.031Z,982.1
2017-06-20T12:12:16.566Z,982.1
2017-06-20T12:13:19.188Z,982
2017-06-20T12:14:21.850Z,982
2017-06-20T12:15:24.707Z,981.7
2017-06-20T12:16:27.278Z,981.9
2017-06-20T12:17:29.816Z,982
2017-06-20T12:18:33.087Z,981.9
2017-06-20T12:19:35.730Z,981.9
2017-06-20T12:20:38.316Z,981.9
2017-06-20T12:21:40.969Z,981.9
2017-06-20T12:22:43.532Z,981.9
2017-06-20T12:23:46.397Z,981.7
2017-06-20T12:24:49.050Z,981.9
2017-06-20T12:25:51.858Z,981.7
2017-06-20T12:26:54.540Z,982
2017-06-20T12:27:57.122Z,981.6
2017-06-20T12:28:59.695Z,982
2017-06-20T12:30:02.235Z,982
2017-06-20T12:31:13.641Z,981.9
2017-06-20T12:32:16.192Z,981.9
2017-06-20T12:33:18.813Z,982
2017-06-20T12:34:25.504Z,981.9
2017-06-20T12:35:28.044Z,981.8
2017-06-20T12:36:30.676Z,981.8
2017-06-20T12:37:33.291Z,981.6
2017-06-20T12:38:35.886Z,981.9
2017-06-20T12:39:38.501Z,981.9
2017-06-20T12:40:41.054Z,981.9
2017-06-20T12:41:43.609Z,981.9
2017-06-20T12:42:46.186Z,981.9
2017-06-20T12:43:49.447Z,981.9
2017-06-20T12:44:52.142Z,981.8
2017-06-20T12:45:54.747Z,981.8
2017-06-20T12:46:57.316Z,981.8
2017-06-20T12:47:59.877Z,981.6
2017-06-20T12:49:02.797Z,981.9
2017-06-20T12:50:05.488Z,981.9
2017-06-20T12:51:08.136Z,981.9
2017-06-20T12:52:10.752Z,981.6
2017-06-20T12:53:13.390Z,981.9
2017-06-20T12:54:16.099Z,981.9
2017-06-20T12:55:20.399Z,981.9
2017-06-20T12:56:23.068Z,981.9
2017-06-20T12:58:37.120Z,981.8
2017-06-20T12:59:39.751Z,981.9
2017-06-20T13:00:42.413Z,981.9
2017-06-20T13:01:45.048Z,981.9
2017-06-20T13:02:47.627Z,982
2017-06-20T13:03:50.357Z,981.6
2017-06-20T13:04:54.113Z,981.9
2017-06-20T13:05:56.821Z,981.9
2017-06-20T13:06:59.487Z,981.8
2017-06-20T13:08:02.190Z,981.9
2017-06-20T13:09:04.786Z,981.8
2017-06-20T13:10:07.490Z,981.9
2017-06-20T13:11:10.183Z,981.9
2017-06-20T13:12:12.787Z,982
2017-06-20T13:13:15.372Z,982
2017-06-20T13:14:18.025Z,982
2017-06-20T13:15:20.787Z,982.1
2017-06-20T13:16:23.404Z,982
2017-06-20T13:17:26.032Z,982
2017-06-20T13:18:28.719Z,982
2017-06-20T13:19:31.445Z,981.7
2017-06-20T13:20:34.084Z,982
2017-06-20T13:21:37.142Z,981.9
2017-06-20T13:22:40.401Z,982
2017-06-20T13:23:43.442Z,981.5
2017-06-20T13:24:46.537Z,981.6
2017-06-20T13:25:49.605Z,981.7
2017-06-20T13:26:54.635Z,982
2017-06-20T13:27:58.048Z,982
2017-06-20T13:29:01.378Z,981.7
2017-06-20T13:30:04.468Z,982
2017-06-20T13:31:07.019Z,982
2017-06-20T13:32:10.528Z,982
2017-06-20T13:33:13.252Z,982
2017-06-20T13:34:15.924Z,982
2017-06-20T13:35:18.690Z,981.7
2017-06-20T13:36:21.424Z,981.8
2017-06-20T13:37:24.630Z,982
2017-06-20T13:38:27.381Z,982
2017-06-20T13:39:30.058Z,982
2017-06-20T13:40:32.700Z,982
2017-06-20T13:41:35.349Z,982
2017-06-20T13:42:38.267Z,982
2017-06-20T13:43:40.991Z,982
2017-06-20T13:44:43.577Z,982
2017-06-20T13:45:46.099Z,982
2017-06-20T13:46:48.695Z,982.1
2017-06-20T13:47:51.279Z,982
2017-06-20T13:48:54.370Z,982
2017-06-20T13:49:57.058Z,982
2017-06-20T13:50:59.588Z,982
2017-06-20T13:52:02.274Z,982
2017-06-20T13:53:04.933Z,982
2017-06-20T13:54:07.659Z,982.1
2017-06-20T13:55:10.558Z,982.1
2017-06-20T13:56:13.170Z,982.1
2017-06-20T13:57:15.739Z,982.1
2017-06-20T13:58:18.335Z,982.1
2017-06-20T13:59:21.084Z,982.1
2017-06-20T14:00:23.747Z,982.1
2017-06-20T14:01:26.389Z,982.1
2017-06-20T14:02:29.127Z,982.1
2017-06-20T14:03:31.787Z,982.2
2017-06-20T14:04:35.130Z,982.1
2017-06-20T14:05:38.064Z,982.1
2017-06-20T14:06:40.896Z,982.1
2017-06-20T14:07:43.624Z,982.1
2017-06-20T14:08:46.360Z,982.2
2017-06-20T14:09:49.170Z,982.1
2017-06-20T14:10:52.164Z,982.1
2017-06-20T14:11:54.836Z,982.1
2017-06-20T14:12:57.872Z,982.1
2017-06-20T14:14:00.526Z,982.1
2017-06-20T14:15:03.134Z,982.1
2017-06-20T14:16:05.774Z,982.1
2017-06-20T14:17:08.418Z,981.8
2017-06-20T14:18:13.415Z,982.1
2017-06-20T14:19:16.128Z,982.1
2017-06-20T14:20:18.776Z,981.8
2017-06-20T14:21:21.471Z,982.2
2017-06-20T14:22:24.084Z,982.1
2017-06-20T14:23:26.843Z,982.1
2017-06-20T14:24:30.632Z,981.8
2017-06-20T14:25:33.263Z,982.2
2017-06-20T14:26:36.049Z,982.1
2017-06-20T14:27:39.286Z,982.1
2017-06-20T14:28:42.494Z,982.2
2017-06-20T14:29:45.415Z,981.9
2017-06-20T14:30:48.475Z,981.9
2017-06-20T14:31:51.675Z,982.1
2017-06-20T14:32:55.220Z,981.8
2017-06-20T14:33:59.993Z,982.1
2017-06-20T14:35:18.267Z,982.1
2017-06-20T14:36:22.298Z,982.1
2017-06-20T14:37:25.768Z,982.1
2017-06-20T14:38:28.991Z,981.8
2017-06-20T14:39:31.726Z,982
2017-06-20T14:40:34.300Z,982
2017-06-20T14:41:36.912Z,982
2017-06-20T14:42:39.585Z,982
2017-06-20T14:43:42.789Z,981.7
2017-06-20T14:44:45.700Z,982
2017-06-20T14:45:53.679Z,982
2017-06-20T14:46:56.690Z,981.7
2017-06-20T14:47:59.730Z,982
2017-06-20T14:49:02.925Z,982
2017-06-20T14:50:06.150Z,982
2017-06-20T14:51:08.940Z,981.9
2017-06-20T14:52:12.006Z,981.7
2017-06-20T14:53:14.731Z,981.9
2017-06-20T14:54:22.842Z,981.9
2017-06-20T14:55:26.429Z,981.9
2017-06-20T14:56:30.515Z,981.9
2017-06-20T14:57:41.274Z,981.9
2017-06-20T14:58:46.618Z,981.9
2017-06-20T15:01:12.341Z,981.9
2017-06-20T15:02:15.248Z,981.9
2017-06-20T15:03:18.103Z,981.8
2017-06-20T15:04:20.938Z,981.6
2017-06-20T15:05:23.963Z,981.9
2017-06-20T15:06:34.265Z,981.9
2017-06-20T15:07:40.649Z,982
2017-06-20T15:08:43.343Z,982
2017-06-20T15:09:50.413Z,982
2017-06-20T15:10:53.752Z,982
2017-06-20T15:11:56.728Z,981.9
2017-06-20T15:12:59.812Z,982
2017-06-20T15:14:02.872Z,981.9
2017-06-20T15:15:06.905Z,981.9
2017-06-20T15:16:10.270Z,982
2017-06-20T15:17:12.829Z,982
2017-06-20T15:18:16.512Z,981.9
2017-06-20T15:19:19.106Z,982
2017-06-20T15:20:21.876Z,981.9
2017-06-20T15:21:24.531Z,982
2017-06-20T15:23:38.579Z,981.9
2017-06-20T15:24:41.248Z,982
2017-06-20T15:25:43.925Z,981.9
2017-06-20T15:26:46.583Z,981.9
2017-06-20T15:27:49.247Z,981.7
2017-06-20T15:28:52.035Z,981.9
2017-06-20T15:29:54.730Z,982
2017-06-20T15:31:00.820Z,982
2017-06-20T15:32:03.458Z,982
2017-06-20T15:33:06.117Z,981.9
2017-06-20T15:34:08.765Z,981.9
2017-06-20T15:35:11.976Z,981.9
2017-06-20T15:36:14.524Z,981.6
2017-06-20T15:37:17.082Z,981.9
2017-06-20T15:38:19.663Z,981.9
2017-06-20T15:39:22.374Z,981.9
2017-06-20T15:40:25.010Z,981.9
2017-06-20T15:41:30.904Z,981.9
2017-06-20T15:42:33.444Z,981.9
2017-06-20T15:43:36.672Z,981.6
2017-06-20T15:44:39.230Z,981.9
2017-06-20T15:45:42.943Z,981.9
2017-06-20T15:46:45.656Z,981.9
2017-06-20T15:47:48.374Z,981.9
2017-06-20T15:48:52.054Z,981.9
2017-06-20T15:49:54.766Z,981.6
2017-06-20T15:50:57.390Z,982
2017-06-20T15:52:00.525Z,982
2017-06-20T15:53:03.875Z,982
2017-06-20T15:54:07.247Z,982
2017-06-20T15:55:11.396Z,981.9
2017-06-20T15:56:14.932Z,982
2017-06-20T15:57:18.004Z,981.7
2017-06-20T15:58:21.849Z,982.1
2017-06-20T15:59:24.784Z,982.1
2017-06-20T16:00:29.072Z,982.1
2017-06-20T16:01:32.856Z,982.1
2017-06-20T16:02:36.792Z,982.1
2017-06-20T16:03:39.948Z,982.2
2017-06-20T16:04:43.698Z,981.8
2017-06-20T16:05:47.587Z,981.8
2017-06-20T16:06:51.842Z,982.1
2017-06-20T16:07:54.989Z,982
2017-06-20T16:08:57.811Z,981.8
2017-06-20T16:10:01.135Z,982
2017-06-20T16:11:04.880Z,982
2017-06-20T16:12:07.972Z,981.9
2017-06-20T16:13:11.086Z,982
2017-06-20T16:14:14.045Z,982
2017-06-20T16:15:17.215Z,981.9
2017-06-20T16:16:20.429Z,981.9
2017-06-20T16:17:23.781Z,981.8
2017-06-20T16:18:26.668Z,981.6
2017-06-20T16:19:29.711Z,981.5
2017-06-20T16:20:33.025Z,981.9
2017-06-20T16:21:38.380Z,981.7
2017-06-20T16:22:42.559Z,981.9
2017-06-20T16:23:45.950Z,981.9
2017-06-20T16:24:49.356Z,982
2017-06-20T16:25:53.553Z,982.1
2017-06-20T16:26:56.832Z,982
2017-06-20T16:28:00.897Z,981.5
2017-06-20T16:29:04.350Z,981.8
2017-06-20T16:30:08.666Z,982.1
2017-06-20T16:31:12.030Z,982.1
2017-06-20T16:32:15.012Z,981.6
2017-06-20T16:33:18.474Z,982
2017-06-20T16:34:21.997Z,981.8
2017-06-20T16:35:25.188Z,982.1
2017-06-20T16:36:28.498Z,982.1
2017-06-20T16:37:31.855Z,981.7
2017-06-20T16:38:35.197Z,981.8
2017-06-20T16:39:38.346Z,982.1
2017-06-20T16:40:41.387Z,982.1
2017-06-20T16:41:44.181Z,982.1
2017-06-20T16:42:46.872Z,982.2
2017-06-20T16:43:50.637Z,982.1
2017-06-20T16:44:53.428Z,982.2
2017-06-20T16:45:56.089Z,982.1
2017-06-20T16:46:58.718Z,982.1
2017-06-20T16:48:01.706Z,981.9
2017-06-20T16:49:04.447Z,981.9
2017-06-20T16:50:07.610Z,982.2
2017-06-20T16:51:10.313Z,982.2
2017-06-20T16:52:12.973Z,982.2
2017-06-20T16:53:15.798Z,982.2
2017-06-20T16:54:18.520Z,982.2
2017-06-20T16:55:21.599Z,982.2
2017-06-20T16:56:24.340Z,982.2
2017-06-20T16:57:27.248Z,982.1
2017-06-20T16:58:30.016Z,982.1
2017-06-20T16:59:33.086Z,982.2
2017-06-20T17:00:35.852Z,982.2
2017-06-20T17:01:38.671Z,982.1
2017-06-20T17:02:41.560Z,982.2
2017-06-20T17:03:44.076Z,982.2
2017-06-20T17:04:46.612Z,982.2
2017-06-20T17:05:49.174Z,982.2
2017-06-20T17:06:51.772Z,982.2
2017-06-20T17:07:54.363Z,982.2
2017-06-20T17:08:56.982Z,982.2
2017-06-20T17:10:00.335Z,982.2
2017-06-20T17:11:03.074Z,982.2
2017-06-20T17:12:05.693Z,982.2
2017-06-20T17:13:08.327Z,982.2
2017-06-20T17:14:11.146Z,982.2
2017-06-20T17:15:14.232Z,982.2
2017-06-20T17:16:16.838Z,982.2
2017-06-20T17:17:19.431Z,982.2
2017-06-20T17:18:22.090Z,982.2
2017-06-20T17:19:24.694Z,982.2
2017-06-20T17:20:27.384Z,982.3
2017-06-20T17:21:30.213Z,982.3
2017-06-20T17:22:32.894Z,982.3
2017-06-20T17:23:35.498Z,982.3
2017-06-20T17:24:38.136Z,982.3
2017-06-20T17:25:41.260Z,982.3
2017-06-20T17:26:43.844Z,982.2
2017-06-20T17:27:46.959Z,982.3
2017-06-20T17:28:49.569Z,982.3
2017-06-20T17:29:52.683Z,982.4
2017-06-20T17:30:55.349Z,982.4
2017-06-20T17:31:58.093Z,982.4
2017-06-20T17:33:00.772Z,982.4
2017-06-20T17:34:03.602Z,982.4
2017-06-20T17:35:06.249Z,982.4
2017-06-20T17:36:08.849Z,982.3
2017-06-20T17:37:11.495Z,982.4
2017-06-20T17:38:13.945Z,982.4
2017-06-20T17:39:16.539Z,982.4
2017-06-20T17:40:19.405Z,982.5
2017-06-20T17:41:21.927Z,982.5
2017-06-20T17:42:24.700Z,982.1
2017-06-20T17:43:27.239Z,982.5
2017-06-20T17:44:29.807Z,982.5
2017-06-20T17:45:32.777Z,982.2
2017-06-20T17:46:35.446Z,982.6
2017-06-20T17:47:38.192Z,982.5
2017-06-20T17:48:40.741Z,982.5
2017-06-20T17:49:43.863Z,982.5
2017-06-20T17:50:46.515Z,982.5
2017-06-20T17:51:49.233Z,982.5
2017-06-20T17:52:51.889Z,982.5
2017-06-20T17:53:55.022Z,982.5
2017-06-20T17:54:57.753Z,982.5
2017-06-20T17:56:00.273Z,982.5
2017-06-20T17:57:02.917Z,982.5
2017-06-20T17:58:05.448Z,982.6
2017-06-20T17:59:08.166Z,982.4
2017-06-20T18:00:10.746Z,982.5
2017-06-20T18:01:13.329Z,982.6
2017-06-20T18:02:15.877Z,982.6
2017-06-20T18:03:18.421Z,982.6
2017-06-20T18:04:20.990Z,982.7
2017-06-20T18:05:23.585Z,982.6
2017-06-20T18:06:26.145Z,982.6
2017-06-20T18:07:28.821Z,982.6
2017-06-20T18:08:31.603Z,982.6
2017-06-20T18:09:34.693Z,982.6
2017-06-20T18:10:37.300Z,982.7
2017-06-20T18:11:39.902Z,982.6
2017-06-20T18:12:42.565Z,982.7
2017-06-20T18:13:45.067Z,982.7
2017-06-20T18:14:47.634Z,982.7
2017-06-20T18:15:50.214Z,982.7
2017-06-20T18:16:52.844Z,982.7
2017-06-20T18:17:55.349Z,982.4
2017-06-20T18:18:57.871Z,982.7
2017-06-20T18:20:01.219Z,982.7
2017-06-20T18:21:03.868Z,982.7
2017-06-20T18:22:13.008Z,982.4
2017-06-20T18:23:15.541Z,982.8
2017-06-20T18:24:18.852Z,982.5
2017-06-20T18:25:21.403Z,982.7
2017-06-20T18:26:24.014Z,982.8
2017-06-20T18:27:26.521Z,982.8
2017-06-20T18:28:29.055Z,982.8
2017-06-20T18:29:31.715Z,982.8
2017-06-20T18:30:34.335Z,982.8
2017-06-20T18:31:36.898Z,982.8
2017-06-20T18:32:39.621Z,982.8
2017-06-20T18:33:42.299Z,982.9
2017-06-20T18:34:48.411Z,982.9
2017-06-20T18:35:50.945Z,982.7
2017-06-20T18:36:53.484Z,982.9
2017-06-20T18:37:56.080Z,983
2017-06-20T18:38:58.645Z,983
2017-06-20T18:40:01.336Z,983
2017-06-20T18:41:03.976Z,983
2017-06-20T18:42:06.595Z,983
2017-06-20T18:43:10.268Z,983
2017-06-20T18:44:12.918Z,983
2017-06-20T18:45:22.276Z,982.7
2017-06-20T18:46:24.998Z,983
2017-06-20T18:47:27.624Z,983.1
2017-06-20T18:48:30.560Z,983.1
2017-06-20T18:49:33.245Z,983.1
2017-06-20T18:50:35.909Z,983.1
2017-06-20T18:51:38.711Z,983.1
2017-06-20T18:52:41.676Z,983.1
2017-06-20T18:53:44.370Z,983.1
2017-06-20T18:54:46.981Z,983.1
2017-06-20T18:55:49.637Z,983.1
2017-06-20T18:56:52.201Z,983.1
2017-06-20T18:57:54.753Z,983.2
2017-06-20T18:58:57.492Z,983.2
2017-06-20T19:00:00.945Z,983.2
2017-06-20T19:01:03.768Z,983.2
2017-06-20T19:02:07.123Z,983.2
2017-06-20T19:03:09.807Z,983.2
2017-06-20T19:04:12.588Z,983.2
2017-06-20T19:05:15.249Z,983.2
2017-06-20T19:06:20.716Z,983.2
2017-06-20T19:07:23.555Z,983.2
2017-06-20T19:08:26.142Z,983.2
2017-06-20T19:09:28.731Z,983.2
2017-06-20T19:10:31.468Z,983.2
2017-06-20T19:11:42.865Z,983.2
2017-06-20T19:12:45.393Z,983.2
2017-06-20T19:13:48.014Z,983.2
2017-06-20T19:14:50.606Z,983.2
2017-06-20T19:15:53.231Z,983.2
2017-06-20T19:16:55.791Z,983.2
2017-06-20T19:17:58.567Z,983
2017-06-20T19:19:01.213Z,983.3
2017-06-20T19:20:04.034Z,982.9
2017-06-20T19:21:06.793Z,983.1
2017-06-20T19:22:13.433Z,983.4
2017-06-20T19:23:16.008Z,983.4
2017-06-20T19:24:18.603Z,983.4
2017-06-20T19:25:21.509Z,983.5
2017-06-20T19:26:24.346Z,983.4
2017-06-20T19:27:26.874Z,983.4
2017-06-20T19:28:29.730Z,983.4
2017-06-20T19:29:32.506Z,983.2
2017-06-20T19:30:35.109Z,983.5
2017-06-20T19:31:37.760Z,983.6
2017-06-20T19:32:40.718Z,983.5
2017-06-20T19:33:43.268Z,983.6
2017-06-20T19:34:45.898Z,983.6
2017-06-20T19:35:48.487Z,983.6
2017-06-20T19:36:51.092Z,983.5
2017-06-20T19:37:53.694Z,983.7
2017-06-20T19:38:56.262Z,983.5
2017-06-20T19:39:59.040Z,983.6
2017-06-20T19:41:01.912Z,983.6
2017-06-20T19:42:04.644Z,983.3
2017-06-20T19:43:07.237Z,983.4
2017-06-20T19:44:09.860Z,983.4
2017-06-20T19:45:12.532Z,983.7
2017-06-20T19:46:15.088Z,983.4
2017-06-20T19:48:29.127Z,983.8
2017-06-20T19:49:31.777Z,983.7
2017-06-20T19:50:35.125Z,983.7
2017-06-20T19:51:37.710Z,983.8
2017-06-20T19:52:40.314Z,983.8
2017-06-20T19:53:42.947Z,983.8
2017-06-20T19:54:45.517Z,983.8
2017-06-20T19:55:48.043Z,983.8
2017-06-20T19:56:50.606Z,983.8
2017-06-20T19:57:53.258Z,983.9
2017-06-20T19:58:55.790Z,983.8
2017-06-20T19:59:58.347Z,983.8
2017-06-20T20:01:01.025Z,983.9
2017-06-20T20:02:03.815Z,983.9
2017-06-20T20:03:08.742Z,983.9
2017-06-20T20:04:11.522Z,983.9
2017-06-20T20:05:14.158Z,983.9
2017-06-20T20:06:16.693Z,983.9
2017-06-20T20:07:19.260Z,983.9
2017-06-20T20:08:21.829Z,983.8
2017-06-20T20:09:25.181Z,983.9
2017-06-20T20:10:27.744Z,984
2017-06-20T20:11:30.321Z,983.9
2017-06-20T20:12:32.921Z,983.9
2017-06-20T20:13:35.557Z,983.9
2017-06-20T20:14:38.112Z,983.6
2017-06-20T20:15:40.652Z,983.8
2017-06-20T20:16:43.226Z,983.9
2017-06-20T20:17:45.841Z,983.9
2017-06-20T20:18:48.401Z,983.9
2017-06-20T20:19:50.881Z,983.7
2017-06-20T20:20:53.433Z,984
2017-06-20T20:21:55.920Z,984
2017-06-20T20:22:58.479Z,984
2017-06-20T20:24:01.094Z,984
2017-06-20T20:25:03.754Z,984
2017-06-20T20:26:06.352Z,983.7
2017-06-20T20:27:08.879Z,984
2017-06-20T20:28:11.424Z,984
2017-06-20T20:29:14.077Z,984
2017-06-20T20:30:16.597Z,984
2017-06-20T20:31:19.147Z,984
2017-06-20T20:32:21.750Z,984
2017-06-20T20:33:24.351Z,984
2017-06-20T20:34:26.952Z,984
2017-06-20T20:35:29.482Z,984
2017-06-20T20:36:32.100Z,984
2017-06-20T20:37:34.755Z,984.1
2017-06-20T20:38:37.412Z,984
2017-06-20T20:39:40.615Z,984
2017-06-20T20:40:43.250Z,984.1
2017-06-20T20:41:45.874Z,984.1
2017-06-20T20:42:48.421Z,984.1
2017-06-20T20:43:50.997Z,984.1
2017-06-20T20:44:53.517Z,984.1
2017-06-20T20:45:56.120Z,984.1
2017-06-20T20:46:58.747Z,984.1
2017-06-20T20:48:01.277Z,984.1
2017-06-20T20:49:03.897Z,984.2
2017-06-20T20:50:06.558Z,984.1
2017-06-20T20:51:09.114Z,984.1
2017-06-20T20:52:11.723Z,984.1
2017-06-20T20:53:14.272Z,984.1
2017-06-20T20:54:16.804Z,984.1
2017-06-20T20:55:19.354Z,984.1
2017-06-20T20:56:21.901Z,984.1
2017-06-20T20:57:24.587Z,984.1
2017-06-20T20:58:27.202Z,984
2017-06-20T20:59:29.766Z,984.1
2017-06-20T21:00:32.395Z,984.1
2017-06-20T21:01:35.144Z,983.8
2017-06-20T21:02:37.655Z,984.1
2017-06-20T21:03:40.221Z,984.1
2017-06-20T21:04:42.740Z,984.1
2017-06-20T21:05:45.334Z,984.1
2017-06-20T21:06:47.872Z,984
2017-06-20T21:07:50.444Z,984.1
2017-06-20T21:08:53.000Z,984.1
2017-06-20T21:09:55.657Z,984.1
2017-06-20T21:10:58.469Z,984.1
2017-06-20T21:12:01.073Z,984
2017-06-20T21:13:03.675Z,984.1
2017-06-20T21:14:06.299Z,984.1
2017-06-20T21:15:08.823Z,984
2017-06-20T21:16:11.431Z,984.1
2017-06-20T21:17:13.976Z,984.1
2017-06-20T21:18:16.531Z,984.1
2017-06-20T21:19:19.013Z,984.1
2017-06-20T21:20:21.482Z,984.1
2017-06-20T21:21:24.042Z,984.1
2017-06-20T21:22:26.783Z,984.2
2017-06-20T21:23:29.290Z,984.2
2017-06-20T21:24:31.813Z,984.1
2017-06-20T21:25:34.396Z,983.9
2017-06-20T21:26:36.976Z,984.2
2017-06-20T21:27:39.505Z,984.1
2017-06-20T21:28:42.059Z,984.2
2017-06-20T21:29:44.658Z,984.2
2017-06-20T21:30:47.153Z,984.2
2017-06-20T21:31:49.714Z,984.2
2017-06-20T21:32:52.225Z,984.2
2017-06-20T21:33:54.804Z,984.2
2017-06-20T21:34:57.360Z,984.2
2017-06-20T21:35:59.949Z,984.2
2017-06-20T21:37:02.561Z,984.2
2017-06-20T21:38:05.095Z,984.2
2017-06-20T21:39:07.676Z,984.3
2017-06-20T21:40:10.189Z,984.3
2017-06-20T21:41:12.678Z,984.3
2017-06-20T21:42:15.243Z,984.3
2017-06-20T21:43:17.762Z,984.3
2017-06-20T21:44:20.346Z,984.3
2017-06-20T21:46:34.346Z,984.3
2017-06-20T21:47:37.042Z,984.3
2017-06-20T21:48:39.584Z,984.2
2017-06-20T21:49:42.141Z,984.3
2017-06-20T21:50:46.717Z,984.3
2017-06-20T21:51:49.379Z,984.2
2017-06-20T21:52:51.966Z,984.2
2017-06-20T21:53:54.568Z,984.2
2017-06-20T21:54:57.112Z,984.2
2017-06-20T21:55:59.941Z,984.2
2017-06-20T21:57:03.826Z,984.2
2017-06-20T21:58:09.155Z,984.3
2017-06-20T21:59:14.148Z,984.2
2017-06-20T22:00:16.696Z,984.2
2017-06-20T22:01:20.782Z,984.2
2017-06-20T22:02:24.925Z,984.2
2017-06-20T22:03:28.973Z,984.2
2017-06-20T22:04:32.960Z,984.2
2017-06-20T22:05:35.560Z,984.2
2017-06-20T22:06:38.164Z,984.3
2017-06-20T22:07:40.736Z,984.2
2017-06-20T22:08:43.298Z,984.2
2017-06-20T22:09:45.864Z,984.2
2017-06-20T22:10:48.360Z,984.2
2017-06-20T22:11:50.960Z,984.2
2017-06-20T22:12:53.550Z,984.3
2017-06-20T22:13:56.781Z,984.3
2017-06-20T22:14:59.444Z,984.3
2017-06-20T22:16:02.005Z,984.3
2017-06-20T22:17:04.484Z,984.3
2017-06-20T22:18:07.020Z,984.2
2017-06-20T22:19:09.541Z,984.2
2017-06-20T22:20:12.029Z,984.2
2017-06-20T22:21:14.511Z,984
2017-06-20T22:22:17.223Z,984.3
2017-06-20T22:23:19.758Z,984.3
2017-06-20T22:24:22.295Z,984.2
2017-06-20T22:25:24.775Z,984.3
2017-06-20T22:26:27.261Z,984.3
2017-06-20T22:27:29.707Z,984.3
2017-06-20T22:28:32.193Z,984.4
2017-06-20T22:29:34.691Z,984.1
2017-06-20T22:30:37.278Z,984.3
2017-06-20T22:31:39.834Z,984.5
2017-06-20T22:32:42.317Z,984.1
2017-06-20T22:33:44.763Z,984.5
2017-06-20T22:34:47.231Z,984.4
2017-06-20T22:35:49.715Z,984.4
2017-06-20T22:36:52.183Z,984.4
2017-06-20T22:37:54.673Z,984.5
2017-06-20T22:38:57.184Z,984.5
2017-06-20T22:39:59.646Z,984.5
2017-06-20T22:41:02.185Z,984.5
2017-06-20T22:42:04.698Z,984.4
2017-06-20T22:43:07.159Z,984.5
2017-06-20T22:44:09.654Z,984.4
2017-06-20T22:45:12.145Z,984.4
2017-06-20T22:46:14.578Z,984.4
2017-06-20T22:47:17.063Z,984.5
2017-06-20T22:48:19.743Z,984.5
2017-06-20T22:49:22.212Z,984.5
2017-06-20T22:50:24.720Z,984.5